sensor_id;sensor_type;location;lat;lon;timestamp;temperature;humidity
22108;DHT22;11220;48.812;9.128;2023-01-30T00:00:55;16.10;67.60
22108;DHT22;11220;48.812;9.128;2023-01-30T00:03:25;16.10;67.60
22108;DHT22;11220;48.812;9.128;2023-01-30T00:05:51;16.10;67.60
22108;DHT22;11220;48.812;9.128;2023-01-30T00:08:17;16.10;67.60
22108;DHT22;11220;48.812;9.128;2023-01-30T00:10:43;16.10;67.60
22108;DHT22;11220;48.812;9.128;2023-01-30T00:13:09;16.10;67.60
22108;DHT22;11220;48.812;9.128;2023-01-30T00:15:36;16.00;67.50
22108;DHT22;11220;48.812;9.128;2023-01-30T00:18:02;16.00;67.60
22108;DHT22;11220;48.812;9.128;2023-01-30T00:20:27;16.00;67.50
22108;DHT22;11220;48.812;9.128;2023-01-30T00:22:53;16.00;67.50
22108;DHT22;11220;48.812;9.128;2023-01-30T00:25:18;16.00;67.50
22108;DHT22;11220;48.812;9.128;2023-01-30T00:27:44;16.00;67.50
22108;DHT22;11220;48.812;9.128;2023-01-30T00:30:13;16.00;67.90
22108;DHT22;11220;48.812;9.128;2023-01-30T00:32:38;16.00;67.50
22108;DHT22;11220;48.812;9.128;2023-01-30T00:35:04;16.00;67.50
22108;DHT22;11220;48.812;9.128;2023-01-30T00:37:31;16.00;67.50
22108;DHT22;11220;48.812;9.128;2023-01-30T00:39:57;16.00;67.50
22108;DHT22;11220;48.812;9.128;2023-01-30T00:42:22;16.00;67.50
22108;DHT22;11220;48.812;9.128;2023-01-30T00:45:09;15.90;67.40
22108;DHT22;11220;48.812;9.128;2023-01-30T00:47:54;15.90;67.40
22108;DHT22;11220;48.812;9.128;2023-01-30T00:50:20;15.90;67.40
22108;DHT22;11220;48.812;9.128;2023-01-30T00:52:48;15.90;67.40
22108;DHT22;11220;48.812;9.128;2023-01-30T00:55:13;15.90;67.50
22108;DHT22;11220;48.812;9.128;2023-01-30T00:57:40;15.90;67.50
22108;DHT22;11220;48.812;9.128;2023-01-30T01:00:06;15.90;67.40
22108;DHT22;11220;48.812;9.128;2023-01-30T01:02:33;15.90;67.50
22108;DHT22;11220;48.812;9.128;2023-01-30T01:04:59;15.90;67.50
22108;DHT22;11220;48.812;9.128;2023-01-30T01:07:24;15.90;67.40
22108;DHT22;11220;48.812;9.128;2023-01-30T01:09:50;15.90;67.50
22108;DHT22;11220;48.812;9.128;2023-01-30T01:12:15;15.90;67.40
22108;DHT22;11220;48.812;9.128;2023-01-30T01:14:41;15.90;67.40
22108;DHT22;11220;48.812;9.128;2023-01-30T01:17:06;15.90;67.40
22108;DHT22;11220;48.812;9.128;2023-01-30T01:19:32;15.80;67.40
22108;DHT22;11220;48.812;9.128;2023-01-30T01:21:57;15.80;67.30
22108;DHT22;11220;48.812;9.128;2023-01-30T01:24:23;15.80;67.30
22108;DHT22;11220;48.812;9.128;2023-01-30T01:26:48;15.80;67.30
22108;DHT22;11220;48.812;9.128;2023-01-30T01:29:15;15.80;67.30
22108;DHT22;11220;48.812;9.128;2023-01-30T01:31:41;15.80;67.30
22108;DHT22;11220;48.812;9.128;2023-01-30T01:34:08;15.80;67.40
22108;DHT22;11220;48.812;9.128;2023-01-30T01:36:33;15.80;67.40
22108;DHT22;11220;48.812;9.128;2023-01-30T01:38:59;15.70;67.30
22108;DHT22;11220;48.812;9.128;2023-01-30T01:41:24;15.80;67.30
22108;DHT22;11220;48.812;9.128;2023-01-30T01:46:32;15.70;67.20
22108;DHT22;11220;48.812;9.128;2023-01-30T01:49:01;15.80;67.30
22108;DHT22;11220;48.812;9.128;2023-01-30T01:54:09;15.70;67.20
22108;DHT22;11220;48.812;9.128;2023-01-30T01:56:38;15.70;67.20
22108;DHT22;11220;48.812;9.128;2023-01-30T01:59:13;15.70;68.20
22108;DHT22;11220;48.812;9.128;2023-01-30T02:01:43;15.70;67.20
22108;DHT22;11220;48.812;9.128;2023-01-30T02:04:09;15.70;67.10
22108;DHT22;11220;48.812;9.128;2023-01-30T02:06:37;15.70;67.20
22108;DHT22;11220;48.812;9.128;2023-01-30T02:09:07;15.70;67.10
22108;DHT22;11220;48.812;9.128;2023-01-30T02:11:55;15.70;67.10
22108;DHT22;11220;48.812;9.128;2023-01-30T02:14:22;15.70;67.10
22108;DHT22;11220;48.812;9.128;2023-01-30T02:16:48;15.70;67.00
22108;DHT22;11220;48.812;9.128;2023-01-30T02:19:28;15.70;67.00
22108;DHT22;11220;48.812;9.128;2023-01-30T02:30:47;15.60;66.90
22108;DHT22;11220;48.812;9.128;2023-01-30T02:39:02;15.60;66.90
22108;DHT22;11220;48.812;9.128;2023-01-30T02:41:42;15.60;66.90
22108;DHT22;11220;48.812;9.128;2023-01-30T02:44:15;15.60;66.90
22108;DHT22;11220;48.812;9.128;2023-01-30T02:46:56;15.60;66.80
22108;DHT22;11220;48.812;9.128;2023-01-30T02:49:35;15.60;66.80
22108;DHT22;11220;48.812;9.128;2023-01-30T02:52:02;15.60;66.80
22108;DHT22;11220;48.812;9.128;2023-01-30T02:54:29;15.60;66.80
22108;DHT22;11220;48.812;9.128;2023-01-30T02:56:58;15.60;66.80
22108;DHT22;11220;48.812;9.128;2023-01-30T02:59:32;15.60;66.90
22108;DHT22;11220;48.812;9.128;2023-01-30T03:07:34;15.50;66.80
22108;DHT22;11220;48.812;9.128;2023-01-30T03:10:14;15.50;66.70
22108;DHT22;11220;48.812;9.128;2023-01-30T03:12:52;15.50;66.70
22108;DHT22;11220;48.812;9.128;2023-01-30T03:17:51;15.50;66.60
22108;DHT22;11220;48.812;9.128;2023-01-30T03:20:19;15.50;66.70
22108;DHT22;11220;48.812;9.128;2023-01-30T03:22:45;15.50;66.70
22108;DHT22;11220;48.812;9.128;2023-01-30T03:25:14;15.50;66.70
22108;DHT22;11220;48.812;9.128;2023-01-30T03:27:40;15.50;66.70
22108;DHT22;11220;48.812;9.128;2023-01-30T03:30:06;15.50;66.70
22108;DHT22;11220;48.812;9.128;2023-01-30T03:32:32;15.50;66.70
22108;DHT22;11220;48.812;9.128;2023-01-30T03:34:58;15.50;66.70
22108;DHT22;11220;48.812;9.128;2023-01-30T03:37:23;15.50;66.70
22108;DHT22;11220;48.812;9.128;2023-01-30T03:39:49;15.40;66.60
22108;DHT22;11220;48.812;9.128;2023-01-30T03:42:14;15.50;66.70
22108;DHT22;11220;48.812;9.128;2023-01-30T03:44:40;15.40;66.70
22108;DHT22;11220;48.812;9.128;2023-01-30T03:47:05;15.40;66.80
22108;DHT22;11220;48.812;9.128;2023-01-30T03:49:31;15.40;66.90
22108;DHT22;11220;48.812;9.128;2023-01-30T03:51:56;15.40;66.80
22108;DHT22;11220;48.812;9.128;2023-01-30T03:54:22;15.40;66.70
22108;DHT22;11220;48.812;9.128;2023-01-30T03:56:47;15.40;66.80
22108;DHT22;11220;48.812;9.128;2023-01-30T03:59:13;15.40;66.70
22108;DHT22;11220;48.812;9.128;2023-01-30T04:01:38;15.40;66.70
22108;DHT22;11220;48.812;9.128;2023-01-30T04:04:04;15.40;66.60
22108;DHT22;11220;48.812;9.128;2023-01-30T04:06:29;15.40;66.70
22108;DHT22;11220;48.812;9.128;2023-01-30T04:08:55;15.40;66.70
22108;DHT22;11220;48.812;9.128;2023-01-30T04:11:20;15.40;66.60
22108;DHT22;11220;48.812;9.128;2023-01-30T04:13:46;15.40;66.60
22108;DHT22;11220;48.812;9.128;2023-01-30T04:16:23;15.40;66.60
22108;DHT22;11220;48.812;9.128;2023-01-30T04:18:50;15.40;66.60
22108;DHT22;11220;48.812;9.128;2023-01-30T04:21:15;15.40;66.50
22108;DHT22;11220;48.812;9.128;2023-01-30T04:23:41;15.40;66.50
22108;DHT22;11220;48.812;9.128;2023-01-30T04:26:08;15.40;66.50
22108;DHT22;11220;48.812;9.128;2023-01-30T04:28:34;15.40;66.40
22108;DHT22;11220;48.812;9.128;2023-01-30T04:30:59;15.40;66.40
22108;DHT22;11220;48.812;9.128;2023-01-30T04:33:25;15.30;66.30
22108;DHT22;11220;48.812;9.128;2023-01-30T04:35:52;15.30;66.30
22108;DHT22;11220;48.812;9.128;2023-01-30T04:38:18;15.30;66.30
22108;DHT22;11220;48.812;9.128;2023-01-30T04:40:48;15.30;66.30
22108;DHT22;11220;48.812;9.128;2023-01-30T04:43:13;15.40;66.30
22108;DHT22;11220;48.812;9.128;2023-01-30T04:45:42;15.30;66.10
22108;DHT22;11220;48.812;9.128;2023-01-30T04:48:07;15.30;66.00
22108;DHT22;11220;48.812;9.128;2023-01-30T04:50:33;15.30;66.00
22108;DHT22;11220;48.812;9.128;2023-01-30T04:52:59;15.30;66.00
22108;DHT22;11220;48.812;9.128;2023-01-30T04:55:24;15.30;66.00
22108;DHT22;11220;48.812;9.128;2023-01-30T04:57:50;15.30;65.90
22108;DHT22;11220;48.812;9.128;2023-01-30T05:00:15;15.30;65.80
22108;DHT22;11220;48.812;9.128;2023-01-30T05:02:41;15.30;65.80
22108;DHT22;11220;48.812;9.128;2023-01-30T05:05:07;15.30;65.80
22108;DHT22;11220;48.812;9.128;2023-01-30T05:07:32;15.30;65.80
22108;DHT22;11220;48.812;9.128;2023-01-30T05:09:58;15.30;65.90
22108;DHT22;11220;48.812;9.128;2023-01-30T05:12:23;15.30;65.80
22108;DHT22;11220;48.812;9.128;2023-01-30T05:14:49;15.30;65.70
22108;DHT22;11220;48.812;9.128;2023-01-30T05:17:14;15.30;65.90
22108;DHT22;11220;48.812;9.128;2023-01-30T05:19:40;15.30;65.60
22108;DHT22;11220;48.812;9.128;2023-01-30T05:22:05;15.30;65.50
22108;DHT22;11220;48.812;9.128;2023-01-30T05:24:31;15.30;65.20
22108;DHT22;11220;48.812;9.128;2023-01-30T05:26:56;15.30;65.10
22108;DHT22;11220;48.812;9.128;2023-01-30T05:29:22;15.30;65.10
22108;DHT22;11220;48.812;9.128;2023-01-30T05:31:47;15.30;66.00
22108;DHT22;11220;48.812;9.128;2023-01-30T05:34:13;15.30;64.90
22108;DHT22;11220;48.812;9.128;2023-01-30T05:36:38;15.20;64.90
22108;DHT22;11220;48.812;9.128;2023-01-30T05:39:04;15.20;64.80
22108;DHT22;11220;48.812;9.128;2023-01-30T05:41:29;15.30;64.80
22108;DHT22;11220;48.812;9.128;2023-01-30T05:43:55;15.30;64.80
22108;DHT22;11220;48.812;9.128;2023-01-30T05:46:20;15.30;64.90
22108;DHT22;11220;48.812;9.128;2023-01-30T05:48:46;15.20;65.00
22108;DHT22;11220;48.812;9.128;2023-01-30T05:51:20;15.30;65.20
22108;DHT22;11220;48.812;9.128;2023-01-30T05:53:46;15.30;65.30
22108;DHT22;11220;48.812;9.128;2023-01-30T05:56:12;15.30;65.50
22108;DHT22;11220;48.812;9.128;2023-01-30T05:58:38;15.30;65.50
22108;DHT22;11220;48.812;9.128;2023-01-30T06:01:05;15.30;65.60
22108;DHT22;11220;48.812;9.128;2023-01-30T06:03:31;15.30;65.70
22108;DHT22;11220;48.812;9.128;2023-01-30T06:05:57;15.30;66.00
22108;DHT22;11220;48.812;9.128;2023-01-30T06:08:23;15.30;66.20
22108;DHT22;11220;48.812;9.128;2023-01-30T06:10:48;15.30;66.20
22108;DHT22;11220;48.812;9.128;2023-01-30T06:13:14;15.30;66.40
22108;DHT22;11220;48.812;9.128;2023-01-30T06:15:39;15.30;66.50
22108;DHT22;11220;48.812;9.128;2023-01-30T06:18:05;15.30;66.60
22108;DHT22;11220;48.812;9.128;2023-01-30T06:20:30;15.20;66.60
22108;DHT22;11220;48.812;9.128;2023-01-30T06:22:56;15.40;66.80
22108;DHT22;11220;48.812;9.128;2023-01-30T06:25:22;15.30;66.70
22108;DHT22;11220;48.812;9.128;2023-01-30T06:27:47;15.30;66.80
22108;DHT22;11220;48.812;9.128;2023-01-30T06:30:13;15.40;66.90
22108;DHT22;11220;48.812;9.128;2023-01-30T06:32:38;15.40;66.80
22108;DHT22;11220;48.812;9.128;2023-01-30T06:35:04;15.40;66.80
22108;DHT22;11220;48.812;9.128;2023-01-30T06:37:30;15.30;66.70
22108;DHT22;11220;48.812;9.128;2023-01-30T06:39:55;15.40;66.70
22108;DHT22;11220;48.812;9.128;2023-01-30T06:42:21;15.40;66.70
22108;DHT22;11220;48.812;9.128;2023-01-30T06:44:46;15.30;66.70
22108;DHT22;11220;48.812;9.128;2023-01-30T06:47:12;15.30;66.60
22108;DHT22;11220;48.812;9.128;2023-01-30T06:49:37;15.40;66.70
22108;DHT22;11220;48.812;9.128;2023-01-30T06:52:03;15.30;66.60
22108;DHT22;11220;48.812;9.128;2023-01-30T06:54:28;15.40;66.70
22108;DHT22;11220;48.812;9.128;2023-01-30T06:56:54;15.30;66.60
22108;DHT22;11220;48.812;9.128;2023-01-30T06:59:20;15.30;66.50
22108;DHT22;11220;48.812;9.128;2023-01-30T07:01:45;15.30;66.40
22108;DHT22;11220;48.812;9.128;2023-01-30T07:04:11;15.30;66.60
22108;DHT22;11220;48.812;9.128;2023-01-30T07:06:36;15.30;66.60
22108;DHT22;11220;48.812;9.128;2023-01-30T07:09:02;15.30;66.60
22108;DHT22;11220;48.812;9.128;2023-01-30T07:11:27;15.30;66.70
22108;DHT22;11220;48.812;9.128;2023-01-30T07:13:53;15.40;66.80
22108;DHT22;11220;48.812;9.128;2023-01-30T07:16:19;15.30;66.80
22108;DHT22;11220;48.812;9.128;2023-01-30T07:18:44;15.30;66.80
22108;DHT22;11220;48.812;9.128;2023-01-30T07:21:10;15.30;66.60
22108;DHT22;11220;48.812;9.128;2023-01-30T07:23:35;15.30;66.50
22108;DHT22;11220;48.812;9.128;2023-01-30T07:26:05;15.30;66.50
22108;DHT22;11220;48.812;9.128;2023-01-30T07:28:31;15.30;66.40
22108;DHT22;11220;48.812;9.128;2023-01-30T07:31:00;15.30;66.70
22108;DHT22;11220;48.812;9.128;2023-01-30T07:33:26;15.30;67.30
22108;DHT22;11220;48.812;9.128;2023-01-30T07:35:51;15.30;66.40
22108;DHT22;11220;48.812;9.128;2023-01-30T07:38:17;15.30;66.60
22108;DHT22;11220;48.812;9.128;2023-01-30T07:40:42;15.30;66.80
22108;DHT22;11220;48.812;9.128;2023-01-30T07:43:11;15.30;66.80
22108;DHT22;11220;48.812;9.128;2023-01-30T07:45:41;15.30;66.90
22108;DHT22;11220;48.812;9.128;2023-01-30T07:48:09;15.30;66.90
22108;DHT22;11220;48.812;9.128;2023-01-30T07:50:35;15.40;67.00
22108;DHT22;11220;48.812;9.128;2023-01-30T07:53:03;15.40;67.20
22108;DHT22;11220;48.812;9.128;2023-01-30T07:55:28;15.30;67.10
22108;DHT22;11220;48.812;9.128;2023-01-30T07:57:54;15.40;67.00
22108;DHT22;11220;48.812;9.128;2023-01-30T08:00:20;15.60;67.20
22108;DHT22;11220;48.812;9.128;2023-01-30T08:02:45;15.40;67.00
22108;DHT22;11220;48.812;9.128;2023-01-30T08:05:11;15.40;67.00
22108;DHT22;11220;48.812;9.128;2023-01-30T08:07:36;15.40;67.00
22108;DHT22;11220;48.812;9.128;2023-01-30T08:10:02;15.50;67.00
22108;DHT22;11220;48.812;9.128;2023-01-30T08:12:28;15.40;67.00
22108;DHT22;11220;48.812;9.128;2023-01-30T08:14:53;15.50;67.20
22108;DHT22;11220;48.812;9.128;2023-01-30T08:17:19;15.50;67.20
22108;DHT22;11220;48.812;9.128;2023-01-30T08:19:44;15.50;67.20
22108;DHT22;11220;48.812;9.128;2023-01-30T08:22:10;15.50;67.30
22108;DHT22;11220;48.812;9.128;2023-01-30T08:24:35;15.60;67.40
22108;DHT22;11220;48.812;9.128;2023-01-30T08:27:01;15.60;67.40
22108;DHT22;11220;48.812;9.128;2023-01-30T08:29:27;15.60;67.50
22108;DHT22;11220;48.812;9.128;2023-01-30T08:31:57;15.60;67.60
22108;DHT22;11220;48.812;9.128;2023-01-30T08:34:23;15.60;67.60
22108;DHT22;11220;48.812;9.128;2023-01-30T08:36:48;15.70;67.80
22108;DHT22;11220;48.812;9.128;2023-01-30T08:39:14;15.70;67.90
22108;DHT22;11220;48.812;9.128;2023-01-30T08:41:39;15.70;68.10
22108;DHT22;11220;48.812;9.128;2023-01-30T08:44:08;15.70;68.20
22108;DHT22;11220;48.812;9.128;2023-01-30T08:46:33;15.80;68.40
22108;DHT22;11220;48.812;9.128;2023-01-30T08:48:59;15.80;68.40
22108;DHT22;11220;48.812;9.128;2023-01-30T08:51:24;15.90;69.50
22108;DHT22;11220;48.812;9.128;2023-01-30T08:53:50;15.90;68.60
22108;DHT22;11220;48.812;9.128;2023-01-30T08:56:15;15.90;69.60
22108;DHT22;11220;48.812;9.128;2023-01-30T08:58:41;16.00;68.70
22108;DHT22;11220;48.812;9.128;2023-01-30T09:01:08;16.00;68.80
22108;DHT22;11220;48.812;9.128;2023-01-30T09:03:34;16.00;68.90
22108;DHT22;11220;48.812;9.128;2023-01-30T09:05:59;16.10;68.80
22108;DHT22;11220;48.812;9.128;2023-01-30T09:08:25;16.10;68.80
22108;DHT22;11220;48.812;9.128;2023-01-30T09:10:50;16.20;68.90
22108;DHT22;11220;48.812;9.128;2023-01-30T09:13:16;16.20;68.90
22108;DHT22;11220;48.812;9.128;2023-01-30T09:15:42;16.20;68.80
22108;DHT22;11220;48.812;9.128;2023-01-30T09:18:07;16.30;68.80
22108;DHT22;11220;48.812;9.128;2023-01-30T09:20:33;16.30;68.80
22108;DHT22;11220;48.812;9.128;2023-01-30T09:22:59;16.30;68.70
22108;DHT22;11220;48.812;9.128;2023-01-30T09:25:25;16.40;68.80
22108;DHT22;11220;48.812;9.128;2023-01-30T09:27:50;16.40;68.70
22108;DHT22;11220;48.812;9.128;2023-01-30T09:30:16;16.40;68.60
22108;DHT22;11220;48.812;9.128;2023-01-30T09:32:42;16.50;68.70
22108;DHT22;11220;48.812;9.128;2023-01-30T09:35:08;16.50;68.60
22108;DHT22;11220;48.812;9.128;2023-01-30T09:37:34;16.50;68.60
22108;DHT22;11220;48.812;9.128;2023-01-30T09:39:59;16.50;68.60
22108;DHT22;11220;48.812;9.128;2023-01-30T09:43:01;16.60;69.50
22108;DHT22;11220;48.812;9.128;2023-01-30T09:45:34;16.60;68.60
22108;DHT22;11220;48.812;9.128;2023-01-30T09:48:22;16.60;68.50
22108;DHT22;11220;48.812;9.128;2023-01-30T09:51:14;16.60;68.40
22108;DHT22;11220;48.812;9.128;2023-01-30T09:56:35;16.60;68.30
22108;DHT22;11220;48.812;9.128;2023-01-30T09:59:02;16.60;69.20
22108;DHT22;11220;48.812;9.128;2023-01-30T10:01:53;16.60;68.20
22108;DHT22;11220;48.812;9.128;2023-01-30T10:04:32;16.60;68.20
22108;DHT22;11220;48.812;9.128;2023-01-30T10:07:14;16.60;68.10
22108;DHT22;11220;48.812;9.128;2023-01-30T10:12:25;16.70;68.10
22108;DHT22;11220;48.812;9.128;2023-01-30T10:20:28;16.70;68.10
22108;DHT22;11220;48.812;9.128;2023-01-30T10:23:10;16.70;68.10
22108;DHT22;11220;48.812;9.128;2023-01-30T10:25:50;16.70;68.10
22108;DHT22;11220;48.812;9.128;2023-01-30T10:28:33;16.70;68.10
22108;DHT22;11220;48.812;9.128;2023-01-30T10:31:14;16.70;68.10
22108;DHT22;11220;48.812;9.128;2023-01-30T10:34:03;16.70;68.10
22108;DHT22;11220;48.812;9.128;2023-01-30T10:36:47;16.70;68.20
22108;DHT22;11220;48.812;9.128;2023-01-30T10:41:57;16.70;68.10
22108;DHT22;11220;48.812;9.128;2023-01-30T10:44:26;16.70;68.10
22108;DHT22;11220;48.812;9.128;2023-01-30T10:49:51;16.70;68.20
22108;DHT22;11220;48.812;9.128;2023-01-30T10:52:34;16.70;68.20
22108;DHT22;11220;48.812;9.128;2023-01-30T11:05:55;16.70;68.40
22108;DHT22;11220;48.812;9.128;2023-01-30T11:08:29;16.70;68.40
22108;DHT22;11220;48.812;9.128;2023-01-30T11:10:56;16.70;68.40
22108;DHT22;11220;48.812;9.128;2023-01-30T11:13:26;16.70;69.40
22108;DHT22;11220;48.812;9.128;2023-01-30T11:15:56;16.70;68.50
22108;DHT22;11220;48.812;9.128;2023-01-30T11:18:23;16.70;68.50
22108;DHT22;11220;48.812;9.128;2023-01-30T11:21:24;16.70;68.60
22108;DHT22;11220;48.812;9.128;2023-01-30T11:23:53;16.70;68.50
22108;DHT22;11220;48.812;9.128;2023-01-30T11:26:29;16.70;68.60
22108;DHT22;11220;48.812;9.128;2023-01-30T11:28:58;16.70;68.60
22108;DHT22;11220;48.812;9.128;2023-01-30T11:31:26;16.70;68.60
22108;DHT22;11220;48.812;9.128;2023-01-30T11:34:04;16.70;68.60
22108;DHT22;11220;48.812;9.128;2023-01-30T11:36:34;16.70;68.70
22108;DHT22;11220;48.812;9.128;2023-01-30T11:39:21;16.70;68.70
22108;DHT22;11220;48.812;9.128;2023-01-30T11:44:31;16.70;68.70
22108;DHT22;11220;48.812;9.128;2023-01-30T11:46:59;16.70;68.80
22108;DHT22;11220;48.812;9.128;2023-01-30T11:49:30;16.70;68.80
22108;DHT22;11220;48.812;9.128;2023-01-30T11:51:58;16.70;68.80
22108;DHT22;11220;48.812;9.128;2023-01-30T11:54:37;16.70;68.80
22108;DHT22;11220;48.812;9.128;2023-01-30T11:57:06;16.70;68.90
22108;DHT22;11220;48.812;9.128;2023-01-30T11:59:38;16.70;68.90
22108;DHT22;11220;48.812;9.128;2023-01-30T12:02:29;16.70;69.00
22108;DHT22;11220;48.812;9.128;2023-01-30T12:05:03;16.70;69.00
22108;DHT22;11220;48.812;9.128;2023-01-30T12:07:31;16.70;69.20
22108;DHT22;11220;48.812;9.128;2023-01-30T12:09:57;16.70;69.90
22108;DHT22;11220;48.812;9.128;2023-01-30T12:12:33;16.70;69.30
22108;DHT22;11220;48.812;9.128;2023-01-30T12:18:04;16.70;69.50
22108;DHT22;11220;48.812;9.128;2023-01-30T12:21:14;16.70;69.50
22108;DHT22;11220;48.812;9.128;2023-01-30T12:23:55;16.70;69.50
22108;DHT22;11220;48.812;9.128;2023-01-30T12:26:44;16.70;69.50
22108;DHT22;11220;48.812;9.128;2023-01-30T12:29:33;16.70;69.50
22108;DHT22;11220;48.812;9.128;2023-01-30T12:32:18;16.70;69.40
22108;DHT22;11220;48.812;9.128;2023-01-30T12:34:45;16.70;69.40
22108;DHT22;11220;48.812;9.128;2023-01-30T12:37:25;16.70;69.30
22108;DHT22;11220;48.812;9.128;2023-01-30T12:50:59;16.70;69.10
22108;DHT22;11220;48.812;9.128;2023-01-30T12:59:07;16.70;69.00
22108;DHT22;11220;48.812;9.128;2023-01-30T13:07:32;16.80;69.00
22108;DHT22;11220;48.812;9.128;2023-01-30T13:18:11;16.70;69.00
22108;DHT22;11220;48.812;9.128;2023-01-30T13:21:07;16.80;69.10
22108;DHT22;11220;48.812;9.128;2023-01-30T13:26:12;16.70;69.10
22108;DHT22;11220;48.812;9.128;2023-01-30T13:28:47;16.70;69.00
22108;DHT22;11220;48.812;9.128;2023-01-30T13:31:17;16.70;69.10
22108;DHT22;11220;48.812;9.128;2023-01-30T13:33:44;16.70;69.00
22108;DHT22;11220;48.812;9.128;2023-01-30T13:36:28;16.70;69.10
22108;DHT22;11220;48.812;9.128;2023-01-30T13:39:12;16.70;69.10
22108;DHT22;11220;48.812;9.128;2023-01-30T13:41:42;16.70;69.10
22108;DHT22;11220;48.812;9.128;2023-01-30T13:44:27;16.80;69.10
22108;DHT22;11220;48.812;9.128;2023-01-30T13:46:56;16.80;69.10
22108;DHT22;11220;48.812;9.128;2023-01-30T13:52:22;16.70;69.00
22108;DHT22;11220;48.812;9.128;2023-01-30T13:54:59;16.70;68.80
22108;DHT22;11220;48.812;9.128;2023-01-30T14:00:32;16.70;68.60
22108;DHT22;11220;48.812;9.128;2023-01-30T14:08:27;16.70;68.50
22108;DHT22;11220;48.812;9.128;2023-01-30T14:10:54;16.70;68.40
22108;DHT22;11220;48.812;9.128;2023-01-30T14:13:21;16.70;68.40
22108;DHT22;11220;48.812;9.128;2023-01-30T14:15:56;16.70;68.40
22108;DHT22;11220;48.812;9.128;2023-01-30T14:18:35;16.70;69.30
22108;DHT22;11220;48.812;9.128;2023-01-30T14:21:20;16.70;68.30
22108;DHT22;11220;48.812;9.128;2023-01-30T14:24:02;16.70;68.30
22108;DHT22;11220;48.812;9.128;2023-01-30T14:40:03;16.80;68.00
22108;DHT22;11220;48.812;9.128;2023-01-30T14:45:51;16.80;67.70
22108;DHT22;11220;48.812;9.128;2023-01-30T14:53:58;16.90;67.50
22108;DHT22;11220;48.812;9.128;2023-01-30T14:59:18;16.90;67.40
22108;DHT22;11220;48.812;9.128;2023-01-30T15:04:48;16.90;67.30
22108;DHT22;11220;48.812;9.128;2023-01-30T15:07:26;16.90;67.20
22108;DHT22;11220;48.812;9.128;2023-01-30T15:12:39;16.90;67.10
22108;DHT22;11220;48.812;9.128;2023-01-30T15:31:23;17.00;67.20
22108;DHT22;11220;48.812;9.128;2023-01-30T15:33:51;17.00;67.20
22108;DHT22;11220;48.812;9.128;2023-01-30T15:36:37;16.90;67.10
22108;DHT22;11220;48.812;9.128;2023-01-30T15:39:05;17.00;67.20
22108;DHT22;11220;48.812;9.128;2023-01-30T15:41:38;17.10;67.30
22108;DHT22;11220;48.812;9.128;2023-01-30T15:44:25;16.90;67.20
22108;DHT22;11220;48.812;9.128;2023-01-30T15:46:55;16.90;67.20
22108;DHT22;11220;48.812;9.128;2023-01-30T15:52:22;16.90;67.30
22108;DHT22;11220;48.812;9.128;2023-01-30T15:54:54;16.90;67.30
22108;DHT22;11220;48.812;9.128;2023-01-30T15:57:25;16.90;67.30
22108;DHT22;11220;48.812;9.128;2023-01-30T15:59:52;16.80;67.30
22108;DHT22;11220;48.812;9.128;2023-01-30T16:02:31;16.90;67.40
22108;DHT22;11220;48.812;9.128;2023-01-30T16:07:38;16.90;67.40
22108;DHT22;11220;48.812;9.128;2023-01-30T16:10:20;16.80;67.40
22108;DHT22;11220;48.812;9.128;2023-01-30T16:12:47;16.80;67.60
22108;DHT22;11220;48.812;9.128;2023-01-30T16:20:49;16.80;67.90
22108;DHT22;11220;48.812;9.128;2023-01-30T16:23:27;16.80;68.00
22108;DHT22;11220;48.812;9.128;2023-01-30T16:25:53;16.80;68.10
22108;DHT22;11220;48.812;9.128;2023-01-30T16:28:21;16.80;68.10
22108;DHT22;11220;48.812;9.128;2023-01-30T16:30:47;16.80;68.20
22108;DHT22;11220;48.812;9.128;2023-01-30T16:33:16;16.80;68.20
22108;DHT22;11220;48.812;9.128;2023-01-30T16:35:45;16.70;68.20
22108;DHT22;11220;48.812;9.128;2023-01-30T16:38:43;16.70;68.30
22108;DHT22;11220;48.812;9.128;2023-01-30T16:41:28;16.70;68.30
22108;DHT22;11220;48.812;9.128;2023-01-30T16:44:20;16.70;68.40
22108;DHT22;11220;48.812;9.128;2023-01-30T16:46:56;16.70;68.50
22108;DHT22;11220;48.812;9.128;2023-01-30T16:52:14;16.70;68.60
22108;DHT22;11220;48.812;9.128;2023-01-30T16:54:55;16.70;68.60
22108;DHT22;11220;48.812;9.128;2023-01-30T16:57:26;16.60;68.50
22108;DHT22;11220;48.812;9.128;2023-01-30T16:59:54;16.60;68.50
22108;DHT22;11220;48.812;9.128;2023-01-30T17:02:34;16.60;68.40
22108;DHT22;11220;48.812;9.128;2023-01-30T17:05:25;16.60;68.50
22108;DHT22;11220;48.812;9.128;2023-01-30T17:07:52;16.60;68.50
22108;DHT22;11220;48.812;9.128;2023-01-30T17:13:25;16.60;68.70
22108;DHT22;11220;48.812;9.128;2023-01-30T17:15:50;16.70;68.70
22108;DHT22;11220;48.812;9.128;2023-01-30T17:18:16;16.60;68.70
22108;DHT22;11220;48.812;9.128;2023-01-30T17:20:42;16.60;68.70
22108;DHT22;11220;48.812;9.128;2023-01-30T17:23:16;16.60;68.70
22108;DHT22;11220;48.812;9.128;2023-01-30T17:25:43;16.60;68.70
22108;DHT22;11220;48.812;9.128;2023-01-30T17:28:15;16.60;68.80
22108;DHT22;11220;48.812;9.128;2023-01-30T17:30:42;16.60;68.80
22108;DHT22;11220;48.812;9.128;2023-01-30T17:33:07;16.60;68.80
22108;DHT22;11220;48.812;9.128;2023-01-30T17:35:33;16.60;68.80
22108;DHT22;11220;48.812;9.128;2023-01-30T17:37:58;16.60;68.70
22108;DHT22;11220;48.812;9.128;2023-01-30T17:40:30;16.60;68.80
22108;DHT22;11220;48.812;9.128;2023-01-30T17:42:57;16.60;68.80
22108;DHT22;11220;48.812;9.128;2023-01-30T17:45:22;16.60;68.80
22108;DHT22;11220;48.812;9.128;2023-01-30T17:47:48;16.60;68.80
22108;DHT22;11220;48.812;9.128;2023-01-30T17:50:13;16.60;68.80
22108;DHT22;11220;48.812;9.128;2023-01-30T17:52:39;16.60;68.80
22108;DHT22;11220;48.812;9.128;2023-01-30T17:55:05;16.60;68.80
22108;DHT22;11220;48.812;9.128;2023-01-30T17:57:31;16.60;68.80
22108;DHT22;11220;48.812;9.128;2023-01-30T17:59:57;16.60;68.80
22108;DHT22;11220;48.812;9.128;2023-01-30T18:02:23;16.60;68.80
22108;DHT22;11220;48.812;9.128;2023-01-30T18:04:48;16.60;68.90
22108;DHT22;11220;48.812;9.128;2023-01-30T18:07:14;16.60;68.80
22108;DHT22;11220;48.812;9.128;2023-01-30T18:09:41;16.60;68.80
22108;DHT22;11220;48.812;9.128;2023-01-30T18:12:07;16.60;68.80
22108;DHT22;11220;48.812;9.128;2023-01-30T18:14:32;16.60;68.80
22108;DHT22;11220;48.812;9.128;2023-01-30T18:16:58;16.60;68.80
22108;DHT22;11220;48.812;9.128;2023-01-30T18:19:26;16.60;68.80
22108;DHT22;11220;48.812;9.128;2023-01-30T18:21:52;16.60;68.80
22108;DHT22;11220;48.812;9.128;2023-01-30T18:24:18;16.60;68.80
22108;DHT22;11220;48.812;9.128;2023-01-30T18:26:44;16.60;68.80
22108;DHT22;11220;48.812;9.128;2023-01-30T18:29:10;16.50;68.80
22108;DHT22;11220;48.812;9.128;2023-01-30T18:31:37;16.50;68.80
22108;DHT22;11220;48.812;9.128;2023-01-30T18:34:03;16.60;68.90